createdAt,value
2018-09-13T00:00:31.136Z,10.00
2018-09-13T00:02:58.645Z,13.60
2018-09-13T00:05:26.829Z,10.17
2018-09-13T00:07:54.154Z,11.97
2018-09-13T00:10:21.487Z,11.67
2018-09-13T00:12:48.794Z,12.00
2018-09-13T00:15:16.089Z,12.33
2018-09-13T00:17:46.430Z,12.87
2018-09-13T00:20:13.933Z,13.70
2018-09-13T00:22:41.558Z,11.00
2018-09-13T00:25:09.358Z,9.40
2018-09-13T00:27:37.703Z,13.30
2018-09-13T00:30:05.429Z,11.20
2018-09-13T00:32:32.735Z,10.60
2018-09-13T00:35:00.090Z,11.93
2018-09-13T00:37:27.438Z,12.13
2018-09-13T00:39:55.218Z,10.90
2018-09-13T00:42:22.542Z,10.00
2018-09-13T00:44:49.988Z,8.33
2018-09-13T00:47:17.318Z,9.20
2018-09-13T00:49:44.645Z,10.20
2018-09-13T00:52:12.003Z,8.50
2018-09-13T00:54:40.381Z,8.73
2018-09-13T00:57:08.302Z,7.90
2018-09-13T00:59:35.915Z,9.43
2018-09-13T01:02:04.856Z,12.50
2018-09-13T01:04:32.363Z,9.27
2018-09-13T01:06:59.861Z,6.87
2018-09-13T01:09:27.463Z,8.10
2018-09-13T01:11:54.964Z,7.73
2018-09-13T01:14:22.195Z,7.90
2018-09-13T01:16:49.649Z,6.87
2018-09-13T01:19:19.548Z,8.63
2018-09-13T01:21:46.917Z,8.53
2018-09-13T01:24:14.273Z,13.93
2018-09-13T01:26:41.473Z,8.73
2018-09-13T01:29:11.073Z,8.37
2018-09-13T01:31:41.759Z,7.37
2018-09-13T01:34:12.913Z,12.07
2018-09-13T01:36:42.429Z,9.03
2018-09-13T01:39:10.393Z,8.43
2018-09-13T01:41:38.009Z,9.10
2018-09-13T01:44:05.545Z,8.23
2018-09-13T01:46:32.855Z,7.07
2018-09-13T01:49:00.157Z,7.60
2018-09-13T01:51:28.801Z,6.77
2018-09-13T01:53:55.988Z,6.20
2018-09-13T01:56:23.241Z,7.67
2018-09-13T01:58:51.051Z,7.67
2018-09-13T02:01:18.469Z,6.73
2018-09-13T02:03:45.665Z,8.53
2018-09-13T02:06:14.311Z,6.67
2018-09-13T02:08:42.725Z,8.70
2018-09-13T02:11:11.259Z,8.60
2018-09-13T02:13:39.587Z,8.00
2018-09-13T02:16:09.740Z,7.43
2018-09-13T02:18:37.020Z,6.47
2018-09-13T02:21:04.376Z,6.60
2018-09-13T02:23:31.628Z,8.17
2018-09-13T02:25:58.865Z,7.90
2018-09-13T02:28:26.381Z,10.33
2018-09-13T02:30:53.593Z,8.37
2018-09-13T02:33:20.851Z,6.87
2018-09-13T02:35:48.079Z,8.20
2018-09-13T02:38:15.268Z,9.57
2018-09-13T02:40:42.602Z,8.37
2018-09-13T02:43:09.860Z,6.90
2018-09-13T02:45:37.581Z,7.13
2018-09-13T02:48:10.722Z,6.90
2018-09-13T02:50:38.010Z,7.07
2018-09-13T02:53:05.610Z,8.20
2018-09-13T02:55:32.866Z,7.93
2018-09-13T02:58:01.533Z,8.77
2018-09-13T03:00:28.838Z,12.87
2018-09-13T03:02:56.328Z,10.10
2018-09-13T03:05:23.711Z,8.70
2018-09-13T03:07:52.913Z,8.97
2018-09-13T03:10:23.409Z,8.23
2018-09-13T03:12:52.304Z,8.63
2018-09-13T03:15:19.870Z,8.77
2018-09-13T03:17:47.176Z,10.30
2018-09-13T03:20:14.417Z,10.03
2018-09-13T03:22:41.614Z,10.07
2018-09-13T03:25:08.865Z,14.03
2018-09-13T03:27:36.135Z,9.10
2018-09-13T03:30:03.537Z,12.17
2018-09-13T03:32:30.729Z,12.03
2018-09-13T03:34:58.081Z,9.67
2018-09-13T03:37:25.327Z,12.63
2018-09-13T03:39:53.400Z,13.17
2018-09-13T03:42:21.731Z,11.67
2018-09-13T03:44:49.282Z,10.40
2018-09-13T03:47:16.511Z,11.23
2018-09-13T03:49:43.730Z,12.47
2018-09-13T03:52:10.969Z,12.60
2018-09-13T03:54:41.385Z,9.80
2018-09-13T03:57:08.643Z,17.60
2018-09-13T03:59:35.859Z,13.10
2018-09-13T04:02:03.333Z,15.17
2018-09-13T04:04:30.560Z,16.07
2018-09-13T04:06:57.825Z,14.10
2018-09-13T04:09:25.085Z,14.20
2018-09-13T04:11:52.330Z,17.67
2018-09-13T04:14:22.047Z,20.03
2018-09-13T04:16:49.236Z,16.33
2018-09-13T04:19:16.466Z,18.27
2018-09-13T04:21:43.712Z,18.97
2018-09-13T04:24:10.992Z,16.27
2018-09-13T04:26:38.537Z,20.20
2018-09-13T04:29:08.848Z,21.27
2018-09-13T04:31:36.401Z,17.27
2018-09-13T04:34:03.803Z,18.10
2018-09-13T04:36:31.667Z,17.80
2018-09-13T04:38:59.065Z,17.23
2018-09-13T04:41:26.319Z,17.07
2018-09-13T04:43:53.672Z,20.00
2018-09-13T04:46:21.138Z,17.50
2018-09-13T04:48:48.550Z,18.10
2018-09-13T04:51:16.219Z,22.40
2018-09-13T04:53:43.534Z,23.13
2018-09-13T04:56:10.769Z,25.37
2018-09-13T04:58:41.505Z,24.60
2018-09-13T05:01:09.087Z,20.93
2018-09-13T05:03:36.374Z,22.73
2018-09-13T05:06:03.834Z,20.47
2018-09-13T05:08:31.981Z,23.73
2018-09-13T05:10:59.287Z,19.47
2018-09-13T05:13:33.813Z,22.53
2018-09-13T05:16:01.160Z,21.20
2018-09-13T05:18:28.375Z,24.40
2018-09-13T05:20:55.575Z,26.60
2018-09-13T05:23:22.773Z,23.10
2018-09-13T05:25:50.001Z,22.00
2018-09-13T05:28:17.232Z,24.03
2018-09-13T05:30:44.490Z,24.30
2018-09-13T05:33:11.681Z,22.80
2018-09-13T05:35:39.200Z,22.80
2018-09-13T05:38:06.477Z,21.90
2018-09-13T05:40:33.736Z,17.70
2018-09-13T05:43:01.076Z,21.70
2018-09-13T05:45:28.895Z,21.40
2018-09-13T05:47:56.262Z,18.77
2018-09-13T05:50:24.585Z,18.50
2018-09-13T05:52:51.882Z,20.97
2018-09-13T05:55:19.118Z,21.10
2018-09-13T05:57:46.322Z,20.03
2018-09-13T06:00:13.577Z,23.87
2018-09-13T06:02:40.707Z,23.30
2018-09-13T06:05:14.891Z,27.40
2018-09-13T06:07:42.293Z,22.50
2018-09-13T06:10:09.505Z,20.87
2018-09-13T06:12:37.457Z,24.20
2018-09-13T06:15:05.288Z,21.93
2018-09-13T06:17:32.503Z,21.63
2018-09-13T06:19:59.753Z,20.40
2018-09-13T06:22:26.950Z,19.30
2018-09-13T06:24:54.269Z,20.70
2018-09-13T06:27:21.461Z,20.43
2018-09-13T06:29:51.719Z,21.17
2018-09-13T06:32:18.961Z,24.80
2018-09-13T06:34:46.374Z,19.03
2018-09-13T06:37:13.671Z,18.10
2018-09-13T06:39:41.050Z,15.30
2018-09-13T06:42:10.963Z,19.67
2018-09-13T06:44:38.289Z,18.20
2018-09-13T06:47:05.732Z,16.50
2018-09-13T06:49:33.052Z,15.20
2018-09-13T06:52:00.390Z,14.63
2018-09-13T06:54:27.693Z,16.33
2018-09-13T06:56:55.042Z,14.80
2018-09-13T06:59:22.645Z,15.33
2018-09-13T07:01:50.017Z,15.80
2018-09-13T07:04:17.625Z,14.90
2018-09-13T07:06:45.001Z,14.63
2018-09-13T07:09:13.905Z,10.83
2018-09-13T07:11:42.065Z,10.93
2018-09-13T07:14:10.038Z,13.90
2018-09-13T07:16:37.481Z,11.63
2018-09-13T07:19:06.344Z,10.30
2018-09-13T07:21:33.962Z,10.70
2018-09-13T07:24:01.341Z,11.77
2018-09-13T07:26:28.644Z,11.80
2018-09-13T07:29:06.721Z,12.83
2018-09-13T07:31:37.186Z,12.70
2018-09-13T07:34:11.083Z,11.77
2018-09-13T07:36:44.871Z,12.40
2018-09-13T07:39:16.272Z,11.93
2018-09-13T07:41:45.383Z,12.03
2018-09-13T07:44:16.267Z,13.83
2018-09-13T07:46:45.333Z,11.30
2018-09-13T07:49:13.359Z,13.67
2018-09-13T07:51:40.802Z,11.70
2018-09-13T07:54:08.472Z,15.80
2018-09-13T07:56:42.858Z,12.63
2018-09-13T07:59:10.361Z,12.00
2018-09-13T08:01:37.987Z,13.20
2018-09-13T08:04:05.944Z,13.50
2018-09-13T08:06:33.507Z,13.13
2018-09-13T08:09:07.497Z,14.60
2018-09-13T08:11:35.024Z,13.00
2018-09-13T08:14:02.544Z,12.90
2018-09-13T08:16:30.053Z,12.50
2018-09-13T08:18:57.593Z,12.30
2018-09-13T08:21:27.993Z,12.77
2018-09-13T08:23:55.536Z,13.60
2018-09-13T08:26:23.067Z,11.93
2018-09-13T08:28:50.571Z,13.23
2018-09-13T08:31:18.245Z,15.47
2018-09-13T08:33:50.916Z,15.83
2018-09-13T08:36:18.524Z,14.77
2018-09-13T08:38:46.052Z,17.10
2018-09-13T08:41:13.625Z,13.17
2018-09-13T08:43:41.340Z,14.60
2018-09-13T08:46:08.956Z,14.83
2018-09-13T08:48:41.355Z,16.27
2018-09-13T08:51:08.883Z,17.03
2018-09-13T08:53:36.386Z,18.53
2018-09-13T08:56:03.946Z,18.10
2018-09-13T08:58:31.513Z,17.70
2018-09-13T09:00:59.175Z,17.97
2018-09-13T09:03:28.883Z,16.83
2018-09-13T09:05:56.514Z,18.30
2018-09-13T09:08:24.022Z,18.20
2018-09-13T09:10:51.552Z,19.13
2018-09-13T09:13:19.212Z,17.20
2018-09-13T09:15:46.770Z,15.80
2018-09-13T09:18:17.604Z,18.30
2018-09-13T09:20:45.092Z,14.80
2018-09-13T09:23:12.779Z,16.77
2018-09-13T09:25:40.413Z,16.00
2018-09-13T09:28:07.981Z,16.73
2018-09-13T09:30:35.574Z,16.47
2018-09-13T09:33:05.307Z,16.37
2018-09-13T09:35:32.805Z,18.13
2018-09-13T09:38:00.309Z,16.30
2018-09-13T09:40:27.844Z,14.90
2018-09-13T09:42:55.329Z,18.50
2018-09-13T09:45:22.821Z,15.80
2018-09-13T09:47:53.020Z,19.20
2018-09-13T09:50:20.602Z,19.70
2018-09-13T09:52:48.095Z,19.00
2018-09-13T09:55:20.190Z,19.80
2018-09-13T09:57:47.755Z,18.87
2018-09-13T10:00:25.725Z,19.40
2018-09-13T10:02:53.212Z,20.50
2018-09-13T10:05:20.853Z,21.43
2018-09-13T10:07:48.332Z,21.93
2018-09-13T10:10:15.885Z,20.87
2018-09-13T10:12:43.430Z,23.90
2018-09-13T10:15:20.736Z,21.43
2018-09-13T10:17:53.889Z,21.70
2018-09-13T10:20:30.491Z,18.33
2018-09-13T10:23:03.751Z,18.00
2018-09-13T10:25:36.930Z,17.10
2018-09-13T10:28:10.229Z,22.50
2018-09-13T10:30:43.356Z,20.07
2018-09-13T10:33:16.427Z,18.50
2018-09-13T10:35:49.587Z,17.40
2018-09-13T10:38:22.797Z,14.37
2018-09-13T10:40:56.181Z,12.27
2018-09-13T10:43:29.437Z,8.30
2018-09-13T10:46:02.697Z,9.40
2018-09-13T10:48:31.857Z,13.10
2018-09-13T10:51:05.175Z,9.47
2018-09-13T10:53:38.361Z,9.20
2018-09-13T10:56:06.372Z,11.07
2018-09-13T10:58:34.277Z,11.00
2018-09-13T11:01:01.976Z,7.93
2018-09-13T11:03:29.700Z,6.50
2018-09-13T11:05:57.283Z,9.13
2018-09-13T11:08:25.005Z,12.53
2018-09-13T11:10:55.308Z,13.93
2018-09-13T11:13:33.058Z,13.17
2018-09-13T11:16:00.679Z,12.23
2018-09-13T11:18:28.765Z,14.43
2018-09-13T11:20:59.966Z,16.40
2018-09-13T11:23:27.543Z,11.77
2018-09-13T11:25:55.164Z,13.40
2018-09-13T11:28:22.807Z,14.23
2018-09-13T11:30:58.089Z,13.00
2018-09-13T11:33:28.480Z,9.93
2018-09-13T11:35:56.252Z,11.83
2018-09-13T11:38:23.859Z,9.53
2018-09-13T11:40:51.488Z,9.10
2018-09-13T11:43:18.992Z,10.17
2018-09-13T11:45:46.563Z,12.30
2018-09-13T11:48:17.884Z,11.60
2018-09-13T11:50:45.539Z,9.73
2018-09-13T11:53:13.141Z,10.77
2018-09-13T11:55:42.382Z,11.23
2018-09-13T12:00:43.805Z,12.93
2018-09-13T12:03:12.352Z,10.73
2018-09-13T12:05:39.908Z,9.67
2018-09-13T12:08:07.488Z,12.50
2018-09-13T12:10:40.101Z,13.20
2018-09-13T12:13:07.763Z,13.93
2018-09-13T12:15:35.333Z,13.13
2018-09-13T12:18:03.111Z,22.60
2018-09-13T12:20:30.465Z,19.13
2018-09-13T12:22:57.998Z,19.17
2018-09-13T12:25:30.569Z,15.80
2018-09-13T12:27:58.179Z,13.50
2018-09-13T12:30:25.820Z,12.73
2018-09-13T12:32:53.362Z,15.60
2018-09-13T12:35:20.886Z,14.73
2018-09-13T12:37:48.491Z,16.50
2018-09-13T12:40:17.385Z,17.80
2018-09-13T12:42:44.989Z,15.30
2018-09-13T12:45:12.512Z,18.87
2018-09-13T12:47:40.099Z,18.10
2018-09-13T12:50:07.684Z,14.73
2018-09-13T12:52:35.229Z,18.80
2018-09-13T12:55:03.707Z,16.53
2018-09-13T12:57:31.281Z,14.33
2018-09-13T12:59:58.809Z,15.90
2018-09-13T13:02:26.372Z,10.20
2018-09-13T13:04:53.901Z,9.50
2018-09-13T13:07:21.404Z,11.10
2018-09-13T13:09:48.940Z,9.53
2018-09-13T13:12:16.488Z,8.40
2018-09-13T13:14:44.081Z,20.50
2018-09-13T13:17:11.668Z,18.30
2018-09-13T13:19:39.215Z,17.10
2018-09-13T13:22:06.753Z,14.37
2018-09-13T13:24:34.439Z,19.30
2018-09-13T13:27:02.047Z,19.50
2018-09-13T13:29:29.578Z,20.97
2018-09-13T13:31:57.255Z,17.17
2018-09-13T13:34:24.964Z,15.20
2018-09-13T13:36:52.497Z,12.30
2018-09-13T13:39:20.089Z,12.17
2018-09-13T13:41:47.710Z,21.77
2018-09-13T13:44:15.266Z,18.20
2018-09-13T13:46:42.892Z,20.30
2018-09-13T13:49:10.445Z,13.30
2018-09-13T13:51:38.246Z,14.90
2018-09-13T13:54:06.029Z,14.63
2018-09-13T13:56:40.214Z,11.40
2018-09-13T13:59:07.643Z,13.90
2018-09-13T14:01:35.434Z,10.87
2018-09-13T14:04:02.900Z,10.30
2018-09-13T14:06:30.257Z,10.50
2018-09-13T14:08:57.590Z,10.20
2018-09-13T14:11:24.961Z,9.23
2018-09-13T14:13:52.305Z,11.30
2018-09-13T14:16:19.663Z,11.67
2018-09-13T14:18:47.217Z,10.30
2018-09-13T14:21:16.101Z,10.97
2018-09-13T14:23:43.445Z,10.40
2018-09-13T14:26:10.869Z,10.20
2018-09-13T14:28:38.366Z,10.57
2018-09-13T14:31:05.750Z,13.43
2018-09-13T14:33:33.081Z,11.77
2018-09-13T14:36:06.357Z,11.80
2018-09-13T14:38:34.073Z,10.73
2018-09-13T14:41:01.368Z,10.37
2018-09-13T14:43:28.776Z,10.63
2018-09-13T14:45:56.341Z,13.23
2018-09-13T14:48:23.711Z,14.47
2018-09-13T14:50:51.614Z,14.03
2018-09-13T14:53:21.941Z,15.60
2018-09-13T14:55:49.310Z,12.60
2018-09-13T14:58:17.437Z,11.17
2018-09-13T15:00:44.843Z,13.47
2018-09-13T15:03:12.199Z,12.30
2018-09-13T15:05:43.627Z,12.00
2018-09-13T15:08:10.939Z,13.67
2018-09-13T15:10:39.986Z,14.93
2018-09-13T15:13:07.782Z,18.20
2018-09-13T15:15:35.191Z,13.13
2018-09-13T15:18:07.237Z,13.13
2018-09-13T15:20:34.604Z,12.90
2018-09-13T15:23:01.969Z,12.03
2018-09-13T15:25:29.379Z,10.63
2018-09-13T15:27:56.687Z,10.87
2018-09-13T15:30:34.402Z,12.10
2018-09-13T15:33:01.845Z,12.23
2018-09-13T15:35:29.303Z,11.90
2018-09-13T15:37:56.604Z,11.90
2018-09-13T15:40:23.945Z,12.80
2018-09-13T15:42:51.317Z,11.30
2018-09-13T15:45:23.308Z,9.93
2018-09-13T15:47:50.633Z,11.20
2018-09-13T15:50:17.952Z,12.17
2018-09-13T15:52:45.291Z,11.73
2018-09-13T15:55:12.760Z,13.03
2018-09-13T15:57:40.166Z,10.20
2018-09-13T16:00:11.817Z,11.50
2018-09-13T16:02:39.170Z,11.80
2018-09-13T16:05:06.684Z,12.73
2018-09-13T16:07:34.191Z,13.20
2018-09-13T16:10:01.528Z,11.97
2018-09-13T16:12:28.925Z,11.63
2018-09-13T16:14:56.321Z,10.57
2018-09-13T16:17:26.047Z,11.30
2018-09-13T16:19:53.364Z,11.53
2018-09-13T16:22:20.728Z,13.50
2018-09-13T16:24:48.085Z,12.17
2018-09-13T16:27:15.473Z,12.80
2018-09-13T16:29:42.807Z,11.90
2018-09-13T16:32:18.451Z,12.80
2018-09-13T16:34:45.802Z,10.90
2018-09-13T16:37:13.115Z,12.73
2018-09-13T16:39:46.443Z,11.10
2018-09-13T16:42:24.063Z,12.73
2018-09-13T16:44:53.837Z,8.90
2018-09-13T16:47:27.976Z,10.73
2018-09-13T16:49:55.941Z,9.10
2018-09-13T16:52:24.600Z,9.50
2018-09-13T16:54:52.049Z,9.10
2018-09-13T16:57:19.497Z,8.90
2018-09-13T16:59:46.845Z,8.57
2018-09-13T17:02:14.185Z,8.80
2018-09-13T17:04:41.608Z,8.80
2018-09-13T17:07:09.032Z,9.07
2018-09-13T17:09:38.801Z,9.87
2018-09-13T17:12:06.180Z,11.87
2018-09-13T17:14:33.640Z,9.30
2018-09-13T17:17:00.981Z,9.43
2018-09-13T17:19:28.398Z,11.37
2018-09-13T17:21:55.885Z,9.73
2018-09-13T17:24:23.234Z,12.93
2018-09-13T17:26:52.344Z,11.73
2018-09-13T17:29:19.898Z,10.80
2018-09-13T17:31:47.365Z,10.73
2018-09-13T17:34:14.693Z,12.53
2018-09-13T17:36:42.010Z,12.70
2018-09-13T17:39:10.972Z,10.53
2018-09-13T17:41:41.189Z,10.20
2018-09-13T17:44:08.845Z,10.67
2018-09-13T17:46:36.415Z,10.67
2018-09-13T17:49:03.795Z,10.70
2018-09-13T17:51:31.109Z,11.00
2018-09-13T17:53:58.483Z,10.90
2018-09-13T17:56:31.176Z,10.70
2018-09-13T17:58:58.910Z,11.63
2018-09-13T18:01:26.806Z,11.13
2018-09-13T18:03:54.342Z,10.57
2018-09-13T18:06:22.345Z,10.73
2018-09-13T18:08:54.940Z,11.23
2018-09-13T18:11:22.498Z,10.33
2018-09-13T18:13:50.144Z,13.07
2018-09-13T18:16:17.744Z,12.63
2018-09-13T18:18:45.362Z,11.20
2018-09-13T18:21:12.862Z,11.70
2018-09-13T18:23:42.392Z,12.90
2018-09-13T18:26:09.864Z,15.90
2018-09-13T18:28:37.477Z,16.83
2018-09-13T18:31:05.115Z,13.10
2018-09-13T18:33:32.665Z,13.50
2018-09-13T18:36:00.397Z,13.23
2018-09-13T18:38:32.931Z,12.70
2018-09-13T18:41:00.414Z,30.57
2018-09-13T18:43:27.762Z,12.73
2018-09-13T18:45:56.577Z,14.13
2018-09-13T18:48:24.037Z,13.40
2018-09-13T18:50:51.418Z,13.73
2018-09-13T18:53:21.944Z,16.03
2018-09-13T18:55:49.534Z,14.60
2018-09-13T18:58:17.117Z,13.40
2018-09-13T19:00:44.687Z,14.70
2018-09-13T19:03:12.318Z,15.53
2018-09-13T19:05:39.759Z,12.00
2018-09-13T19:08:11.314Z,13.47
2018-09-13T19:10:39.312Z,12.03
2018-09-13T19:13:07.053Z,11.60
2018-09-13T19:15:34.713Z,11.07
2018-09-13T19:18:02.280Z,11.13
2018-09-13T19:20:34.430Z,13.43
2018-09-13T19:23:03.161Z,10.00
2018-09-13T19:25:30.548Z,10.37
2018-09-13T19:27:57.914Z,10.63
2018-09-13T19:30:26.091Z,11.40
2018-09-13T19:32:53.390Z,10.90
2018-09-13T19:35:26.281Z,11.63
2018-09-13T19:37:53.584Z,9.83
2018-09-13T19:40:20.909Z,10.50
2018-09-13T19:42:49.102Z,10.17
2018-09-13T19:45:16.420Z,10.27
2018-09-13T19:47:43.835Z,11.07
2018-09-13T19:50:17.396Z,11.03
2018-09-13T19:52:44.854Z,11.00
2018-09-13T19:55:12.147Z,10.27
2018-09-13T19:57:39.762Z,10.23
2018-09-13T20:00:08.391Z,10.00
2018-09-13T20:02:35.912Z,12.33
2018-09-13T20:05:07.924Z,10.43
2018-09-13T20:07:35.868Z,9.60
2018-09-13T20:10:03.243Z,10.90
2018-09-13T20:12:30.665Z,12.00
2018-09-13T20:14:58.364Z,10.70
2018-09-13T20:17:26.003Z,10.70
2018-09-13T20:19:56.624Z,10.97
2018-09-13T20:22:24.307Z,11.90
2018-09-13T20:24:51.607Z,11.47
2018-09-13T20:27:19.137Z,10.03
2018-09-13T20:29:46.453Z,11.87
2018-09-13T20:32:13.845Z,11.00
2018-09-13T20:34:47.350Z,10.87
2018-09-13T20:37:15.237Z,11.30
2018-09-13T20:39:42.550Z,12.27
2018-09-13T20:42:09.843Z,12.00
2018-09-13T20:44:37.245Z,12.43
2018-09-13T20:47:04.626Z,13.10
2018-09-13T20:49:31.949Z,10.13
2018-09-13T20:51:59.391Z,12.43
2018-09-13T20:54:26.669Z,11.57
2018-09-13T20:56:54.024Z,10.77
2018-09-13T20:59:21.333Z,10.70
2018-09-13T21:01:48.741Z,14.53
2018-09-13T21:04:23.693Z,12.63
2018-09-13T21:06:50.989Z,10.57
2018-09-13T21:09:18.254Z,12.00
2018-09-13T21:11:45.596Z,10.30
2018-09-13T21:14:12.894Z,10.40
2018-09-13T21:16:40.205Z,13.17
2018-09-13T21:19:07.589Z,11.03
2018-09-13T21:21:37.004Z,10.20
2018-09-13T21:24:04.407Z,11.63
2018-09-13T21:26:31.661Z,11.80
2018-09-13T21:28:59.048Z,10.27
2018-09-13T21:31:26.449Z,10.23
2018-09-13T21:33:53.724Z,11.60
2018-09-13T21:36:21.020Z,12.93
2018-09-13T21:38:48.326Z,13.20
2018-09-13T21:41:15.632Z,13.40
2018-09-13T21:43:43.001Z,11.37
2018-09-13T21:46:10.280Z,11.10
2018-09-13T21:48:37.612Z,12.73
2018-09-13T21:51:07.117Z,11.67
2018-09-13T21:53:34.416Z,11.00
2018-09-13T21:56:01.756Z,11.53
2018-09-13T21:58:30.674Z,13.67
2018-09-13T22:00:58.479Z,11.47
2018-09-13T22:03:25.801Z,15.03
2018-09-13T22:05:53.197Z,10.47
2018-09-13T22:08:20.567Z,12.30
2018-09-13T22:10:47.867Z,10.40
2018-09-13T22:13:15.153Z,15.03
2018-09-13T22:15:42.450Z,13.60
2018-09-13T22:18:09.963Z,15.60
2018-09-13T22:20:37.325Z,15.00
2018-09-13T22:23:04.677Z,14.57
2018-09-13T22:25:32.004Z,13.10
2018-09-13T22:27:59.375Z,13.53
2018-09-13T22:30:26.690Z,13.13
2018-09-13T22:32:54.064Z,12.90
2018-09-13T22:35:21.497Z,13.33
2018-09-13T22:37:48.762Z,14.33
2018-09-13T22:40:16.174Z,14.27
2018-09-13T22:42:43.469Z,15.43
2018-09-13T22:45:13.591Z,13.20
2018-09-13T22:47:40.882Z,12.57
2018-09-13T22:50:08.364Z,14.60
2018-09-13T22:52:35.915Z,14.23
2018-09-13T22:55:03.237Z,13.67
2018-09-13T22:57:30.537Z,16.23
2018-09-13T22:59:57.830Z,13.47
2018-09-13T23:02:25.181Z,17.30
2018-09-13T23:04:52.458Z,13.50
2018-09-13T23:07:19.713Z,16.03
2018-09-13T23:09:48.578Z,15.67
2018-09-13T23:12:15.977Z,14.90
2018-09-13T23:14:43.269Z,15.38
2018-09-13T23:17:10.567Z,21.80
2018-09-13T23:19:37.885Z,17.83
2018-09-13T23:22:06.114Z,17.80
2018-09-13T23:24:33.469Z,17.33
2018-09-13T23:27:00.911Z,16.50
2018-09-13T23:29:28.339Z,17.10
2018-09-13T23:31:55.680Z,15.20
2018-09-13T23:34:23.009Z,15.83
2018-09-13T23:36:50.303Z,14.10
2018-09-13T23:39:17.637Z,14.43
2018-09-13T23:41:44.913Z,15.53
2018-09-13T23:44:12.272Z,17.97
2018-09-13T23:46:39.605Z,13.58
2018-09-13T23:49:07.729Z,15.98
2018-09-13T23:51:35.506Z,16.85
2018-09-13T23:54:02.847Z,15.80
2018-09-13T23:56:30.157Z,15.40
2018-09-13T23:58:57.565Z,16.37
